Time;durP1;ratioP1;P1;durP2;ratioP2;P2;SDS_P1;SDS_P2;PMS_P1;PMS_P2;Temp;Humidity;BMP_temperature;BMP_pressure;BME280_temperature;BME280_humidity;BME280_pressure;Samples;Min_cycle;Max_cycle;Signal;HPM_P1;HPM_P2
2023/07/02 04:05:45;;;;;;;;;;;13.60;73.80;;;;;;6261610;22;19919;-90
2023/07/02 04:08:15;;;;;;;;;;;13.60;73.80;;;;;;6182791;23;19920;-90
2023/07/02 04:11:02;;;;;;;;;;;13.70;73.70;;;;;;6210060;22;19959;-91
2023/07/02 04:13:31;;;;;;;;;;;13.70;73.60;;;;;;6199618;22;19920;-91
2023/07/02 04:16:17;;;;;;;;;;;13.70;73.50;;;;;;6213696;22;19919;-92
2023/07/02 04:18:42;;;;;;;;;;;13.80;73.50;;;;;;6171375;23;19923;-90
2023/07/02 04:25:05;;;;;;;;;;;13.90;73.30;;;;;;6235670;22;20006;-91
2023/07/02 04:28:10;;;;;;;;;;;13.90;73.30;;;;;;6149909;23;19931;-92
2023/07/02 04:30:42;;;;;;;;;;;13.90;73.30;;;;;;6058865;23;19920;-92
2023/07/02 04:37:02;;;;;;;;;;;13.90;72.80;;;;;;6143735;23;19961;-94
2023/07/02 04:39:47;;;;;;;;;;;;;;;;;;;;;
2023/07/02 04:42:58;;;;;;;;;;;14.00;72.30;;;;;;6094845;23;19920;-94
2023/07/02 04:45:31;;;;;;;;;;;14.00;72.30;;;;;;6067888;23;19931;-92
2023/07/02 04:57:44;;;;;;;;;;;14.30;70.20;;;;;;5864694;24;19927;-93
2023/07/02 05:00:10;;;;;;;;;;;14.30;70.50;;;;;;5892981;24;19924;-90
2023/07/02 05:06:28;;;;;;;;;;;14.50;69.70;;;;;;5944488;23;19923;-92
2023/07/02 05:08:54;;;;;;;;;;;14.60;69.80;;;;;;6053325;23;19921;-93
2023/07/02 05:11:22;;;;;;;;;;;14.80;69.30;;;;;;6073895;23;19976;-91
2023/07/02 05:13:48;;;;;;;;;;;14.80;68.40;;;;;;6185255;23;19923;-90
2023/07/02 05:16:31;;;;;;;;;;;14.90;68.00;;;;;;6190495;23;19927;-92
2023/07/02 05:19:33;;;;;;;;;;;14.90;68.40;;;;;;6211548;23;19923;-90
2023/07/02 05:22:11;;;;;;;;;;;14.80;68.70;;;;;;6242130;23;20007;-92
2023/07/02 05:24:37;;;;;;;;;;;14.80;68.60;;;;;;6190290;23;19920;-89
2023/07/02 05:27:17;;;;;;;;;;;14.80;68.40;;;;;;6178575;23;19923;-92
2023/07/02 05:29:53;;;;;;;;;;;14.70;68.60;;;;;;6190415;22;19919;-91
2023/07/02 05:32:27;;;;;;;;;;;14.70;69.10;;;;;;6202319;22;19919;-92
2023/07/02 05:34:53;;;;;;;;;;;14.70;69.10;;;;;;6202972;22;19919;-89
2023/07/02 05:37:26;;;;;;;;;;;14.70;69.00;;;;;;6217215;22;19972;-90
2023/07/02 05:39:54;;;;;;;;;;;14.70;69.30;;;;;;6198686;22;19920;-90
2023/07/02 05:42:19;;;;;;;;;;;14.80;69.60;;;;;;6222183;22;19923;-91
2023/07/02 05:44:55;;;;;;;;;;;14.80;69.60;;;;;;6198476;22;19926;-91
2023/07/02 05:47:35;;;;;;;;;;;14.90;70.10;;;;;;6193162;22;19926;-91
2023/07/02 05:50:01;;;;;;;;;;;15.00;69.90;;;;;;6182701;22;19919;-89
2023/07/02 05:52:50;;;;;;;;;;;15.00;69.20;;;;;;6201388;23;19970;-90
2023/07/02 05:55:38;;;;;;;;;;;15.00;69.60;;;;;;6151907;22;19919;-93
2023/07/02 05:58:04;;;;;;;;;;;15.10;69.30;;;;;;6193929;22;19925;-89
2023/07/02 06:00:32;;;;;;;;;;;15.20;69.20;;;;;;6223774;22;19927;-91
2023/07/02 06:03:25;;;;;;;;;;;15.20;69.00;;;;;;6223671;22;20253;-92
2023/07/02 06:05:51;;;;;;;;;;;15.30;69.10;;;;;;6222993;22;20013;-91
2023/07/02 06:08:17;;;;;;;;;;;15.30;69.70;;;;;;6187571;22;20318;-88
2023/07/02 06:10:52;;;;;;;;;;;15.40;69.10;;;;;;6223560;22;20245;-91
2023/07/02 06:13:17;;;;;;;;;;;15.40;68.40;;;;;;6216346;22;19919;-91
2023/07/02 06:15:49;;;;;;;;;;;15.60;68.70;;;;;;6223430;22;19925;-90
2023/07/02 06:18:14;;;;;;;;;;;15.60;67.80;;;;;;6186881;23;19982;-90
2023/07/02 06:20:40;;;;;;;;;;;15.60;67.50;;;;;;6238827;22;19989;-93
2023/07/02 06:23:08;;;;;;;;;;;15.60;67.80;;;;;;6178879;23;19986;-88
2023/07/02 06:25:37;;;;;;;;;;;15.70;67.50;;;;;;6212511;22;19927;-92
2023/07/02 06:28:02;;;;;;;;;;;15.80;66.10;;;;;;6186935;23;20247;-89
2023/07/02 06:30:34;;;;;;;;;;;15.80;64.60;;;;;;6211047;22;19928;-91
2023/07/02 06:33:30;;;;;;;;;;;15.80;63.90;;;;;;6145103;23;19923;-90
2023/07/02 06:35:57;;;;;;;;;;;15.60;63.90;;;;;;6234245;22;19919;-90
2023/07/02 06:38:33;;;;;;;;;;;15.60;65.30;;;;;;6215430;22;19941;-91
2023/07/02 06:43:47;;;;;;;;;;;15.80;66.40;;;;;;6235115;22;19920;-89
2023/07/02 06:46:15;;;;;;;;;;;15.80;66.40;;;;;;6196403;22;19919;-96
2023/07/02 06:48:45;;;;;;;;;;;15.80;66.10;;;;;;6166357;23;19991;-92
2023/07/02 06:51:26;;;;;;;;;;;;;;;;;;;;;
2023/07/02 06:53:55;;;;;;;;;;;15.80;65.80;;;;;;6184098;23;19920;-90
2023/07/02 06:56:31;;;;;;;;;;;15.80;65.70;;;;;;6218298;22;19993;-92
2023/07/02 06:58:56;;;;;;;;;;;15.90;66.10;;;;;;6204381;22;19994;-90
2023/07/02 07:01:22;;;;;;;;;;;16.00;65.60;;;;;;6222862;22;19953;-88
2023/07/02 07:03:48;;;;;;;;;;;16.00;65.40;;;;;;6143683;22;19927;-89
2023/07/02 07:06:16;;;;;;;;;;;16.00;64.80;;;;;;6216969;22;19927;-92
2023/07/02 07:08:49;;;;;;;;;;;16.00;65.50;;;;;;6215436;22;19930;-90
2023/07/02 07:11:18;;;;;;;;;;;16.10;66.40;;;;;;6222547;22;19919;-91
2023/07/02 07:13:49;;;;;;;;;;;16.30;65.30;;;;;;6206240;22;19925;-90
2023/07/02 07:16:26;;;;;;;;;;;16.30;63.60;;;;;;6221244;22;19999;-91
2023/07/02 07:19:19;;;;;;;;;;;16.20;63.60;;;;;;6189495;22;19923;-89
2023/07/02 07:21:51;;;;;;;;;;;16.10;63.80;;;;;;6222898;22;19966;-92
2023/07/02 07:24:20;;;;;;;;;;;16.10;64.30;;;;;;6206381;22;19919;-93
2023/07/02 07:26:48;;;;;;;;;;;16.10;64.00;;;;;;6213002;22;19919;-92
2023/07/02 07:30:08;;;;;;;;;;;16.10;64.00;;;;;;6175487;22;19999;-89
2023/07/02 07:32:17;;;;;;;;;;;16.10;64.00;;;;;;6233280;22;19920;-88
2023/07/02 07:34:49;;;;;;;;;;;16.10;63.90;;;;;;6222464;22;20231;-91
2023/07/02 07:37:18;;;;;;;;;;;16.10;63.40;;;;;;6216040;22;19919;-88
2023/07/02 07:39:49;;;;;;;;;;;16.20;63.20;;;;;;6221294;22;19930;-93
2023/07/02 07:42:16;;;;;;;;;;;16.20;63.00;;;;;;6202554;22;19930;-91
2023/07/02 07:44:52;;;;;;;;;;;;;;;;;;;;;
2023/07/02 07:47:28;;;;;;;;;;;16.30;64.10;;;;;;6236720;22;19924;-89
2023/07/02 07:50:13;;;;;;;;;;;16.40;63.20;;;;;;6224786;22;19926;-91
2023/07/02 07:52:43;;;;;;;;;;;16.20;63.40;;;;;;6194502;22;19926;-89
2023/07/02 07:55:08;;;;;;;;;;;16.20;64.00;;;;;;6221256;22;19923;-90
2023/07/02 08:00:29;;;;;;;;;;;16.40;63.90;;;;;;6184563;23;19924;-91
2023/07/02 08:02:55;;;;;;;;;;;16.50;62.00;;;;;;6159692;23;19983;-87
2023/07/02 08:05:53;;;;;;;;;;;16.50;62.50;;;;;;6160161;23;19974;-91
2023/07/02 08:08:19;;;;;;;;;;;16.40;62.90;;;;;;6174963;23;19924;-90
2023/07/02 08:10:48;;;;;;;;;;;16.40;63.00;;;;;;6159868;23;19971;-89
2023/07/02 08:13:43;;;;;;;;;;;16.20;63.80;;;;;;6182705;23;20242;-93
2023/07/02 08:16:11;;;;;;;;;;;16.00;64.30;;;;;;6156748;23;19927;-95
2023/07/02 08:18:46;;;;;;;;;;;15.80;64.90;;;;;;6140112;23;19924;-90
2023/07/02 08:21:23;;;;;;;;;;;15.60;66.50;;;;;;6140652;23;20043;-93
2023/07/02 08:24:18;;;;;;;;;;;15.40;67.80;;;;;;6146862;23;19989;-88
2023/07/02 08:26:49;;;;;;;;;;;15.20;68.60;;;;;;6180637;23;20610;-92
2023/07/02 08:29:28;;;;;;;;;;;15.00;69.20;;;;;;6193006;22;19924;-93
2023/07/02 08:32:19;;;;;;;;;;;15.00;69.70;;;;;;6249135;22;19919;-90
2023/07/02 08:34:45;;;;;;;;;;;15.00;69.80;;;;;;6230940;22;20282;-89
2023/07/02 08:37:14;;;;;;;;;;;15.30;69.50;;;;;;6214767;22;19962;-90
2023/07/02 08:39:39;;;;;;;;;;;15.50;68.50;;;;;;6224195;22;19923;-93
2023/07/02 08:42:14;;;;;;;;;;;15.80;68.00;;;;;;6207257;22;19959;-89
2023/07/02 08:44:40;;;;;;;;;;;15.90;67.50;;;;;;6132178;23;19924;-90
2023/07/02 08:47:09;;;;;;;;;;;16.00;67.50;;;;;;6155325;22;19921;-94
2023/07/02 08:49:35;;;;;;;;;;;16.00;67.80;;;;;;6181836;22;19919;-89
2023/07/02 08:52:25;;;;;;;;;;;15.80;67.70;;;;;;6224843;22;19919;-93
2023/07/02 08:55:27;;;;;;;;;;;;;;;;;;;;;
2023/07/02 09:01:21;;;;;;;;;;;15.90;66.90;;;;;;6275583;22;19965;-92
2023/07/02 09:04:07;;;;;;;;;;;16.00;65.30;;;;;;6147125;23;19998;-92
2023/07/02 09:06:38;;;;;;;;;;;16.10;65.40;;;;;;6160121;23;19915;-96
2023/07/02 09:09:38;;;;;;;;;;;16.20;65.10;;;;;;6161452;23;19924;-94
2023/07/02 09:15:48;;;;;;;;;;;16.50;64.10;;;;;;6152535;23;19932;-96
2023/07/02 09:18:34;;;;;;;;;;;16.80;64.20;;;;;;6083394;23;19927;-92
2023/07/02 09:21:37;;;;;;;;;;;16.80;62.50;;;;;;6126734;23;20339;-95
2023/07/02 09:24:14;;;;;;;;;;;16.70;62.30;;;;;;6003725;23;19965;-93
2023/07/02 09:26:53;;;;;;;;;;;;;;;;;;;;;
2023/07/02 09:36:22;;;;;;;;;;;;;;;;;;;;;
2023/07/02 09:39:28;;;;;;;;;;;17.20;61.40;;;;;;5981807;23;19922;-91
2023/07/02 09:42:32;;;;;;;;;;;17.00;61.20;;;;;;5957902;23;19929;-93
2023/07/02 09:48:46;;;;;;;;;;;;;;;;;;;;;
2023/07/02 09:51:47;;;;;;;;;;;17.00;61.00;;;;;;6011118;23;20425;-93
2023/07/02 09:54:33;;;;;;;;;;;16.90;61.80;;;;;;6003969;23;20472;-91
2023/07/02 09:57:00;;;;;;;;;;;16.80;61.70;;;;;;6032516;23;20057;-91
2023/07/02 09:59:49;;;;;;;;;;;16.70;61.40;;;;;;6042454;23;19922;-92
2023/07/02 10:02:36;;;;;;;;;;;16.60;61.00;;;;;;6054376;23;19925;-92
2023/07/02 10:05:30;;;;;;;;;;;16.70;60.50;;;;;;6046526;23;19928;-92
2023/07/02 10:08:32;;;;;;;;;;;;;;;;;;;;;
2023/07/02 10:12:16;;;;;;;;;;;16.80;61.60;;;;;;6054283;23;20308;-90
2023/07/02 10:14:44;;;;;;;;;;;16.90;61.00;;;;;;6073316;23;20413;-90
2023/07/02 10:17:32;;;;;;;;;;;16.80;61.40;;;;;;6196001;23;19924;-93
2023/07/02 10:20:18;;;;;;;;;;;16.90;61.70;;;;;;6217661;23;19926;-92
2023/07/02 10:22:45;;;;;;;;;;;17.10;62.50;;;;;;6192143;23;19919;-91
2023/07/02 10:25:28;;;;;;;;;;;17.30;62.00;;;;;;6196238;23;20019;-91
2023/07/02 10:27:57;;;;;;;;;;;17.30;60.90;;;;;;6173001;23;19926;-91
2023/07/02 10:34:04;;;;;;;;;;;17.40;62.20;;;;;;6160679;23;20294;-92
2023/07/02 10:36:32;;;;;;;;;;;17.40;60.70;;;;;;6128921;23;19916;-92
2023/07/02 10:39:32;;;;;;;;;;;17.30;61.10;;;;;;6130475;23;19920;-92
2023/07/02 10:42:34;;;;;;;;;;;17.30;61.20;;;;;;6151551;23;20005;-87
2023/07/02 10:45:15;;;;;;;;;;;;;;;;;;;;;
2023/07/02 10:48:00;;;;;;;;;;;17.30;62.70;;;;;;6209617;23;19923;-90
2023/07/02 10:50:40;;;;;;;;;;;;;;;;;;;;;
2023/07/02 10:53:32;;;;;;;;;;;;;;;;;;;;;
2023/07/02 10:56:21;;;;;;;;;;;17.50;61.00;;;;;;6244196;23;19982;-92
2023/07/02 10:59:26;;;;;;;;;;;17.40;60.00;;;;;;6130953;23;19921;-90
2023/07/02 11:02:12;;;;;;;;;;;;;;;;;;;;;
2023/07/02 11:05:18;;;;;;;;;;;17.20;61.20;;;;;;6227176;23;19919;-90
2023/07/02 11:08:19;;;;;;;;;;;17.20;61.80;;;;;;6142970;22;19935;-92
2023/07/02 11:11:11;;;;;;;;;;;17.50;61.30;;;;;;6210275;23;20322;-91
2023/07/02 11:14:13;;;;;;;;;;;;;;;;;;;;;
2023/07/02 11:17:10;;;;;;;;;;;17.80;60.30;;;;;;6091405;23;19917;-93
2023/07/02 11:20:13;;;;;;;;;;;17.90;60.80;;;;;;6086029;23;20644;-90
2023/07/02 11:22:46;;;;;;;;;;;17.90;59.60;;;;;;6066210;23;20011;-95
2023/07/02 11:25:15;;;;;;;;;;;17.80;59.70;;;;;;6113113;23;20008;-89
2023/07/02 11:28:04;;;;;;;;;;;17.60;59.70;;;;;;6073890;23;19932;-90
2023/07/02 11:30:35;;;;;;;;;;;17.50;60.10;;;;;;6122595;23;19921;-90
2023/07/02 11:33:21;;;;;;;;;;;17.30;61.10;;;;;;6069640;23;19941;-90
2023/07/02 11:36:28;;;;;;;;;;;17.10;60.50;;;;;;6074722;23;19936;-90
2023/07/02 11:41:47;;;;;;;;;;;17.00;61.30;;;;;;6088838;23;19921;-89
2023/07/02 11:44:45;;;;;;;;;;;17.00;61.00;;;;;;6116801;23;19945;-90
2023/07/02 11:47:21;;;;;;;;;;;17.10;60.30;;;;;;6115415;23;20379;-90
2023/07/02 11:50:34;;;;;;;;;;;17.10;60.30;;;;;;6097286;23;19928;-90
2023/07/02 11:53:05;;;;;;;;;;;17.10;61.40;;;;;;6107585;23;19920;-89
2023/07/02 11:55:31;;;;;;;;;;;17.10;61.20;;;;;;6156496;23;20285;-90
2023/07/02 11:58:38;;;;;;;;;;;17.10;61.10;;;;;;6185326;23;20371;-90
2023/07/02 12:01:30;;;;;;;;;;;17.00;59.80;;;;;;6186865;23;19920;-91
2023/07/02 12:20:14;;;;;;;;;;;17.60;59.00;;;;;;5981593;23;19945;-95
2023/07/02 12:26:24;;;;;;;;;;;17.80;58.50;;;;;;6017180;23;19937;-94
2023/07/02 12:28:55;;;;;;;;;;;17.90;58.70;;;;;;5963409;23;19988;-92
2023/07/02 12:38:07;;;;;;;;;;;;;;;;;;;;;
2023/07/02 12:41:18;;;;;;;;;;;;;;;;;;;;;
2023/07/02 12:47:41;;;;;;;;;;;17.40;60.10;;;;;;6091517;23;20493;-96
2023/07/02 13:00:27;;;;;;;;;;;17.20;60.90;;;;;;6148379;23;20372;-95
2023/07/02 13:03:23;;;;;;;;;;;17.40;60.00;;;;;;6128818;23;19932;-94
2023/07/02 13:05:48;;;;;;;;;;;17.50;60.50;;;;;;6182245;23;19921;-93
2023/07/02 13:08:32;;;;;;;;;;;17.70;60.00;;;;;;6109978;23;19954;-96
2023/07/02 13:11:20;;;;;;;;;;;17.80;60.70;;;;;;6131732;23;19924;-96
2023/07/02 13:13:45;;;;;;;;;;;17.80;61.10;;;;;;6129798;23;19926;-93
2023/07/02 13:17:05;;;;;;;;;;;17.50;61.50;;;;;;6133958;23;20003;-96
2023/07/02 13:22:45;;;;;;;;;;;17.30;62.50;;;;;;6130944;23;19925;-93
2023/07/02 13:25:45;;;;;;;;;;;;;;;;;;;;;
2023/07/02 13:28:25;;;;;;;;;;;17.50;62.10;;;;;;6133585;23;19939;-94
2023/07/02 13:31:12;;;;;;;;;;;17.30;61.40;;;;;;6131320;23;19915;-94
2023/07/02 13:33:42;;;;;;;;;;;17.20;61.60;;;;;;6153240;22;20277;-91
2023/07/02 13:36:28;;;;;;;;;;;17.10;62.20;;;;;;6222814;22;19923;-95
2023/07/02 13:39:11;;;;;;;;;;;17.00;62.90;;;;;;6223521;22;19919;-96
2023/07/02 13:42:04;;;;;;;;;;;17.00;62.80;;;;;;6226407;22;20349;-96
2023/07/02 13:44:29;;;;;;;;;;;17.00;62.60;;;;;;6218943;22;19923;-93
2023/07/02 13:46:57;;;;;;;;;;;17.00;61.20;;;;;;6221353;22;20141;-92
2023/07/02 13:49:28;;;;;;;;;;;17.00;61.80;;;;;;6222173;22;19997;-95
2023/07/02 13:52:09;;;;;;;;;;;16.90;62.70;;;;;;6198385;22;19923;-95
2023/07/02 13:55:06;;;;;;;;;;;16.90;62.70;;;;;;6274962;22;20361;-92
2023/07/02 13:58:01;;;;;;;;;;;16.90;63.10;;;;;;6206717;22;19920;-96
2023/07/02 14:00:38;;;;;;;;;;;17.20;61.20;;;;;;6222730;22;19926;-93
2023/07/02 14:06:31;;;;;;;;;;;17.40;60.40;;;;;;6267404;22;20233;-92
2023/07/02 14:09:14;;;;;;;;;;;17.30;59.70;;;;;;6178842;23;20408;-93
2023/07/02 14:18:10;;;;;;;;;;;17.10;61.10;;;;;;6092209;23;20111;-92
2023/07/02 14:21:02;;;;;;;;;;;17.10;61.20;;;;;;6162829;23;20028;-94
2023/07/02 14:23:59;;;;;;;;;;;;;;;;;;;;;
2023/07/02 14:26:30;;;;;;;;;;;17.00;61.50;;;;;;6099718;23;19917;-94
2023/07/02 14:29:54;;;;;;;;;;;;;;;;;;;;;
2023/07/02 14:33:22;;;;;;;;;;;;;;;;;;;;;
2023/07/02 14:36:07;;;;;;;;;;;16.90;62.90;;;;;;5998405;23;19926;-89
2023/07/02 14:38:54;;;;;;;;;;;16.80;63.50;;;;;;5977124;23;19933;-93
2023/07/02 14:41:34;;;;;;;;;;;16.90;63.30;;;;;;6089619;23;19920;-91
2023/07/02 14:44:04;;;;;;;;;;;16.90;62.10;;;;;;6086860;23;19920;-87
2023/07/02 14:46:35;;;;;;;;;;;16.90;61.90;;;;;;6099235;23;19991;-92
2023/07/02 14:49:04;;;;;;;;;;;16.90;62.50;;;;;;6097692;23;19924;-93
2023/07/02 14:51:29;;;;;;;;;;;16.90;62.30;;;;;;6102218;23;20018;-89
2023/07/02 14:54:38;;;;;;;;;;;16.90;62.00;;;;;;6091760;23;19969;-91
2023/07/02 14:57:28;;;;;;;;;;;16.90;62.50;;;;;;6153602;23;19916;-92
2023/07/02 14:59:58;;;;;;;;;;;17.00;63.00;;;;;;6183978;23;20347;-89
2023/07/02 15:02:24;;;;;;;;;;;17.00;62.30;;;;;;6182983;23;19931;-90
2023/07/02 15:04:54;;;;;;;;;;;17.20;61.50;;;;;;6160604;23;19924;-93
2023/07/02 15:07:20;;;;;;;;;;;17.50;58.60;;;;;;6129485;23;20255;-90
2023/07/02 15:09:46;;;;;;;;;;;17.70;57.50;;;;;;6165087;22;19928;-90
2023/07/02 15:12:20;;;;;;;;;;;17.80;57.90;;;;;;6212618;22;20297;-89
2023/07/02 15:14:46;;;;;;;;;;;17.70;58.40;;;;;;6197234;22;19919;-87
2023/07/02 15:17:12;;;;;;;;;;;17.50;58.20;;;;;;6189318;22;19954;-91
2023/07/02 15:19:40;;;;;;;;;;;17.50;58.70;;;;;;6221081;22;20002;-92
2023/07/02 15:22:13;;;;;;;;;;;17.50;58.40;;;;;;6203324;22;19923;-90
2023/07/02 15:24:45;;;;;;;;;;;17.50;58.80;;;;;;6201147;22;19919;-94
2023/07/02 15:27:10;;;;;;;;;;;17.40;58.70;;;;;;6216719;22;20253;-91
2023/07/02 15:32:56;;;;;;;;;;;17.20;60.00;;;;;;6204406;23;19924;-94
2023/07/02 15:35:49;;;;;;;;;;;;;;;;;;;;;
2023/07/02 15:38:31;;;;;;;;;;;17.00;59.00;;;;;;6270925;22;19923;-90
2023/07/02 15:44:14;;;;;;;;;;;16.80;59.50;;;;;;6197245;22;19930;-93
2023/07/02 15:46:43;;;;;;;;;;;16.60;59.90;;;;;;6216811;22;19919;-90
2023/07/02 15:49:14;;;;;;;;;;;16.50;60.10;;;;;;6160737;22;19942;-95
2023/07/02 15:51:40;;;;;;;;;;;16.50;60.50;;;;;;6222006;22;19919;-95
2023/07/02 15:55:11;;;;;;;;;;;16.40;60.90;;;;;;6181236;22;19919;-92
2023/07/02 15:57:19;;;;;;;;;;;16.40;60.80;;;;;;6198183;22;20581;-93
2023/07/02 16:03:14;;;;;;;;;;;16.40;61.90;;;;;;6167425;23;19961;-95
2023/07/02 16:05:54;;;;;;;;;;;16.40;62.10;;;;;;6156293;23;19955;-91
2023/07/02 16:08:56;;;;;;;;;;;16.40;62.30;;;;;;6154751;23;19978;-96
2023/07/02 16:15:09;;;;;;;;;;;16.30;62.40;;;;;;6173571;23;19920;-93
2023/07/02 16:17:42;;;;;;;;;;;16.20;62.60;;;;;;6146812;23;19943;-95
2023/07/02 16:20:08;;;;;;;;;;;16.20;62.40;;;;;;6154549;23;20441;-92
2023/07/02 16:22:33;;;;;;;;;;;16.20;62.80;;;;;;6114207;23;19996;-94
2023/07/02 16:25:02;;;;;;;;;;;16.30;63.20;;;;;;6109942;23;19947;-95
2023/07/02 16:27:28;;;;;;;;;;;16.30;63.20;;;;;;6195210;23;20328;-96
2023/07/02 16:29:53;;;;;;;;;;;16.40;63.40;;;;;;6198891;22;19930;-92
2023/07/02 16:35:54;;;;;;;;;;;16.40;63.20;;;;;;6252916;22;19915;-94
2023/07/02 16:45:14;;;;;;;;;;;16.40;62.90;;;;;;6114247;23;19928;-94
2023/07/02 16:54:16;;;;;;;;;;;16.40;62.30;;;;;;6171042;23;19930;-91
2023/07/02 16:57:32;;;;;;;;;;;16.40;62.30;;;;;;6180221;23;19948;-96
2023/07/02 16:59:57;;;;;;;;;;;16.30;62.10;;;;;;6161189;23;19949;-96
2023/07/02 17:02:26;;;;;;;;;;;16.40;62.00;;;;;;6195205;22;19923;-96
2023/07/02 17:05:24;;;;;;;;;;;;;;;;;;;;;
2023/07/02 17:08:48;;;;;;;;;;;16.30;62.00;;;;;;6233110;22;19954;-96
2023/07/02 17:11:22;;;;;;;;;;;16.20;62.40;;;;;;6210834;22;19923;-90
2023/07/02 17:14:01;;;;;;;;;;;;;;;;;;;;;
2023/07/02 17:20:24;;;;;;;;;;;16.10;62.20;;;;;;6188838;23;19923;-94
2023/07/02 17:26:43;;;;;;;;;;;16.00;63.90;;;;;;6276123;22;19918;-96
2023/07/02 18:39:34;;;;;;;;;;;15.80;64.00;;;;;;6188743;23;19939;-96
2023/07/02 18:42:07;;;;;;;;;;;15.80;64.50;;;;;;6159186;23;19955;-95
2023/07/02 18:44:52;;;;;;;;;;;15.80;65.20;;;;;;6140263;23;19936;-96
2023/07/02 18:51:23;;;;;;;;;;;;;;;;;;;;;
2023/07/02 18:54:10;;;;;;;;;;;;;;;;;;;;;
2023/07/02 19:03:30;;;;;;;;;;;14.70;71.80;;;;;;6151553;23;19972;-92
2023/07/02 19:05:57;;;;;;;;;;;14.50;73.70;;;;;;6100316;23;20400;-90
